sensor_id;sensor_type;location;lat;lon;timestamp;P1;durP1;ratioP1;P2;durP2;ratioP2
17604;SDS011;8921;50.964;6.800;2023-03-08T00:01:01;6.87;;;4.20;;
17604;SDS011;8921;50.964;6.800;2023-03-08T00:03:29;6.77;;;3.80;;
17604;SDS011;8921;50.964;6.800;2023-03-08T00:05:57;8.47;;;5.13;;
17604;SDS011;8921;50.964;6.800;2023-03-08T00:08:28;7.93;;;4.60;;
17604;SDS011;8921;50.964;6.800;2023-03-08T00:13:33;8.30;;;5.53;;
17604;SDS011;8921;50.964;6.800;2023-03-08T00:16:02;11.30;;;4.80;;
17604;SDS011;8921;50.964;6.800;2023-03-08T00:18:29;7.20;;;4.20;;
17604;SDS011;8921;50.964;6.800;2023-03-08T00:20:59;7.40;;;4.93;;
17604;SDS011;8921;50.964;6.800;2023-03-08T00:23:29;10.33;;;5.60;;
17604;SDS011;8921;50.964;6.800;2023-03-08T00:25:57;7.03;;;4.40;;
17604;SDS011;8921;50.964;6.800;2023-03-08T00:28:25;10.10;;;5.00;;
17604;SDS011;8921;50.964;6.800;2023-03-08T00:30:56;8.90;;;4.30;;
17604;SDS011;8921;50.964;6.800;2023-03-08T00:33:25;7.33;;;4.53;;
17604;SDS011;8921;50.964;6.800;2023-03-08T00:36:03;10.40;;;4.87;;
17604;SDS011;8921;50.964;6.800;2023-03-08T00:38:27;7.47;;;4.33;;
17604;SDS011;8921;50.964;6.800;2023-03-08T00:40:55;8.77;;;4.50;;
17604;SDS011;8921;50.964;6.800;2023-03-08T00:43:24;6.90;;;4.20;;
17604;SDS011;8921;50.964;6.800;2023-03-08T00:45:52;8.87;;;4.60;;
17604;SDS011;8921;50.964;6.800;2023-03-08T00:48:20;7.73;;;4.30;;
17604;SDS011;8921;50.964;6.800;2023-03-08T00:50:48;6.97;;;4.30;;
17604;SDS011;8921;50.964;6.800;2023-03-08T00:53:17;7.57;;;4.10;;
17604;SDS011;8921;50.964;6.800;2023-03-08T00:55:48;10.03;;;4.43;;
17604;SDS011;8921;50.964;6.800;2023-03-08T00:58:16;8.03;;;4.80;;
17604;SDS011;8921;50.964;6.800;2023-03-08T01:00:44;7.67;;;4.40;;
17604;SDS011;8921;50.964;6.800;2023-03-08T01:03:13;12.30;;;5.90;;
17604;SDS011;8921;50.964;6.800;2023-03-08T01:05:42;9.47;;;5.40;;
17604;SDS011;8921;50.964;6.800;2023-03-08T01:08:10;9.53;;;5.50;;
17604;SDS011;8921;50.964;6.800;2023-03-08T01:10:38;8.40;;;5.03;;
17604;SDS011;8921;50.964;6.800;2023-03-08T01:13:06;7.20;;;4.57;;
17604;SDS011;8921;50.964;6.800;2023-03-08T01:15:35;8.13;;;5.07;;
17604;SDS011;8921;50.964;6.800;2023-03-08T01:18:05;9.37;;;4.90;;
17604;SDS011;8921;50.964;6.800;2023-03-08T01:20:33;10.23;;;4.53;;
17604;SDS011;8921;50.964;6.800;2023-03-08T01:23:02;8.40;;;5.53;;
17604;SDS011;8921;50.964;6.800;2023-03-08T01:25:30;14.53;;;5.57;;
17604;SDS011;8921;50.964;6.800;2023-03-08T01:27:58;10.83;;;5.77;;
17604;SDS011;8921;50.964;6.800;2023-03-08T01:30:27;13.30;;;5.47;;
17604;SDS011;8921;50.964;6.800;2023-03-08T01:32:55;7.90;;;4.77;;
17604;SDS011;8921;50.964;6.800;2023-03-08T01:35:23;9.90;;;4.57;;
17604;SDS011;8921;50.964;6.800;2023-03-08T01:37:51;10.93;;;5.03;;
17604;SDS011;8921;50.964;6.800;2023-03-08T01:40:20;10.70;;;6.13;;
17604;SDS011;8921;50.964;6.800;2023-03-08T01:42:48;7.53;;;4.20;;
17604;SDS011;8921;50.964;6.800;2023-03-08T01:48:23;8.43;;;4.70;;
17604;SDS011;8921;50.964;6.800;2023-03-08T01:50:50;8.63;;;4.93;;
17604;SDS011;8921;50.964;6.800;2023-03-08T01:53:19;7.80;;;4.60;;
17604;SDS011;8921;50.964;6.800;2023-03-08T01:55:47;8.80;;;4.90;;
17604;SDS011;8921;50.964;6.800;2023-03-08T01:58:15;10.40;;;4.90;;
17604;SDS011;8921;50.964;6.800;2023-03-08T02:00:44;8.67;;;5.13;;
17604;SDS011;8921;50.964;6.800;2023-03-08T02:03:12;13.13;;;4.80;;
17604;SDS011;8921;50.964;6.800;2023-03-08T02:05:42;13.00;;;5.00;;
17604;SDS011;8921;50.964;6.800;2023-03-08T02:08:08;8.60;;;4.77;;
17604;SDS011;8921;50.964;6.800;2023-03-08T02:10:37;9.83;;;5.20;;
17604;SDS011;8921;50.964;6.800;2023-03-08T02:13:05;7.27;;;4.30;;
17604;SDS011;8921;50.964;6.800;2023-03-08T02:15:33;10.33;;;5.17;;
17604;SDS011;8921;50.964;6.800;2023-03-08T02:18:02;20.50;;;6.60;;
17604;SDS011;8921;50.964;6.800;2023-03-08T02:20:31;12.73;;;5.53;;
17604;SDS011;8921;50.964;6.800;2023-03-08T02:25:56;10.70;;;5.30;;
17604;SDS011;8921;50.964;6.800;2023-03-08T02:28:23;8.13;;;5.27;;
17604;SDS011;8921;50.964;6.800;2023-03-08T02:30:50;5.60;;;3.73;;
17604;SDS011;8921;50.964;6.800;2023-03-08T02:33:18;7.40;;;4.40;;
17604;SDS011;8921;50.964;6.800;2023-03-08T02:35:46;7.50;;;4.40;;
17604;SDS011;8921;50.964;6.800;2023-03-08T02:38:16;10.43;;;4.80;;
17604;SDS011;8921;50.964;6.800;2023-03-08T02:40:43;7.23;;;3.77;;
17604;SDS011;8921;50.964;6.800;2023-03-08T02:43:11;7.00;;;4.10;;
17604;SDS011;8921;50.964;6.800;2023-03-08T02:45:39;7.60;;;4.57;;
17604;SDS011;8921;50.964;6.800;2023-03-08T02:48:08;8.00;;;4.30;;
17604;SDS011;8921;50.964;6.800;2023-03-08T02:50:36;8.50;;;5.23;;
17604;SDS011;8921;50.964;6.800;2023-03-08T02:53:04;9.17;;;4.43;;
17604;SDS011;8921;50.964;6.800;2023-03-08T02:55:33;8.60;;;4.40;;
17604;SDS011;8921;50.964;6.800;2023-03-08T02:58:04;8.53;;;4.37;;
17604;SDS011;8921;50.964;6.800;2023-03-08T03:00:32;5.83;;;3.93;;
17604;SDS011;8921;50.964;6.800;2023-03-08T03:03:00;8.77;;;4.30;;
17604;SDS011;8921;50.964;6.800;2023-03-08T03:05:29;8.10;;;4.33;;
17604;SDS011;8921;50.964;6.800;2023-03-08T03:07:57;8.73;;;4.77;;
17604;SDS011;8921;50.964;6.800;2023-03-08T03:10:26;12.03;;;5.67;;
17604;SDS011;8921;50.964;6.800;2023-03-08T03:12:54;8.07;;;5.20;;
17604;SDS011;8921;50.964;6.800;2023-03-08T03:15:22;7.70;;;4.50;;
17604;SDS011;8921;50.964;6.800;2023-03-08T03:17:50;8.00;;;4.40;;
17604;SDS011;8921;50.964;6.800;2023-03-08T03:20:18;8.90;;;5.57;;
17604;SDS011;8921;50.964;6.800;2023-03-08T03:22:47;8.37;;;4.03;;
17604;SDS011;8921;50.964;6.800;2023-03-08T03:25:15;7.87;;;4.10;;
17604;SDS011;8921;50.964;6.800;2023-03-08T03:27:43;7.53;;;4.33;;
17604;SDS011;8921;50.964;6.800;2023-03-08T03:30:12;9.37;;;4.70;;
17604;SDS011;8921;50.964;6.800;2023-03-08T03:32:40;8.93;;;4.90;;
17604;SDS011;8921;50.964;6.800;2023-03-08T03:35:08;8.57;;;5.67;;
17604;SDS011;8921;50.964;6.800;2023-03-08T03:37:37;9.37;;;5.33;;
17604;SDS011;8921;50.964;6.800;2023-03-08T03:40:05;9.00;;;6.07;;
17604;SDS011;8921;50.964;6.800;2023-03-08T03:42:34;10.10;;;5.47;;
17604;SDS011;8921;50.964;6.800;2023-03-08T03:45:02;10.03;;;6.60;;
17604;SDS011;8921;50.964;6.800;2023-03-08T03:47:30;16.07;;;6.50;;
17604;SDS011;8921;50.964;6.800;2023-03-08T03:49:59;15.97;;;7.50;;
17604;SDS011;8921;50.964;6.800;2023-03-08T03:52:27;10.40;;;5.80;;
17604;SDS011;8921;50.964;6.800;2023-03-08T03:54:55;13.47;;;6.90;;
17604;SDS011;8921;50.964;6.800;2023-03-08T03:57:23;13.70;;;7.50;;
17604;SDS011;8921;50.964;6.800;2023-03-08T03:59:52;13.83;;;7.77;;
17604;SDS011;8921;50.964;6.800;2023-03-08T04:02:20;12.13;;;7.60;;
17604;SDS011;8921;50.964;6.800;2023-03-08T04:04:49;10.70;;;7.00;;
17604;SDS011;8921;50.964;6.800;2023-03-08T04:07:19;11.37;;;6.60;;
17604;SDS011;8921;50.964;6.800;2023-03-08T04:09:48;14.17;;;8.83;;
17604;SDS011;8921;50.964;6.800;2023-03-08T04:12:16;14.10;;;7.80;;
17604;SDS011;8921;50.964;6.800;2023-03-08T04:14:44;15.90;;;7.77;;
17604;SDS011;8921;50.964;6.800;2023-03-08T04:17:13;13.00;;;7.80;;
17604;SDS011;8921;50.964;6.800;2023-03-08T04:19:41;15.93;;;9.70;;
17604;SDS011;8921;50.964;6.800;2023-03-08T04:22:09;17.00;;;10.50;;
17604;SDS011;8921;50.964;6.800;2023-03-08T04:24:37;18.83;;;10.70;;
17604;SDS011;8921;50.964;6.800;2023-03-08T04:27:08;18.20;;;10.97;;
17604;SDS011;8921;50.964;6.800;2023-03-08T04:29:37;16.77;;;10.60;;
17604;SDS011;8921;50.964;6.800;2023-03-08T04:32:08;19.87;;;12.07;;
17604;SDS011;8921;50.964;6.800;2023-03-08T04:34:36;22.70;;;10.77;;
17604;SDS011;8921;50.964;6.800;2023-03-08T04:37:04;16.33;;;9.50;;
17604;SDS011;8921;50.964;6.800;2023-03-08T04:39:33;17.87;;;9.63;;
17604;SDS011;8921;50.964;6.800;2023-03-08T04:42:01;18.53;;;11.53;;
17604;SDS011;8921;50.964;6.800;2023-03-08T04:44:29;17.53;;;9.40;;
17604;SDS011;8921;50.964;6.800;2023-03-08T04:46:58;16.50;;;10.17;;
17604;SDS011;8921;50.964;6.800;2023-03-08T04:49:26;15.50;;;9.77;;
17604;SDS011;8921;50.964;6.800;2023-03-08T04:51:54;17.20;;;12.07;;
17604;SDS011;8921;50.964;6.800;2023-03-08T04:54:23;16.90;;;10.83;;
17604;SDS011;8921;50.964;6.800;2023-03-08T04:56:51;15.70;;;9.90;;
17604;SDS011;8921;50.964;6.800;2023-03-08T04:59:19;16.40;;;9.50;;
17604;SDS011;8921;50.964;6.800;2023-03-08T05:01:47;16.37;;;10.27;;
17604;SDS011;8921;50.964;6.800;2023-03-08T05:04:16;17.30;;;9.83;;
17604;SDS011;8921;50.964;6.800;2023-03-08T05:06:44;16.40;;;9.10;;
17604;SDS011;8921;50.964;6.800;2023-03-08T05:09:15;15.43;;;9.30;;
17604;SDS011;8921;50.964;6.800;2023-03-08T05:11:43;14.07;;;8.40;;
17604;SDS011;8921;50.964;6.800;2023-03-08T05:14:11;17.20;;;9.13;;
17604;SDS011;8921;50.964;6.800;2023-03-08T05:19:18;14.33;;;8.43;;
17604;SDS011;8921;50.964;6.800;2023-03-08T05:21:47;22.27;;;10.67;;
17604;SDS011;8921;50.964;6.800;2023-03-08T05:24:15;14.90;;;8.73;;
17604;SDS011;8921;50.964;6.800;2023-03-08T05:26:43;17.83;;;10.07;;
17604;SDS011;8921;50.964;6.800;2023-03-08T05:29:11;17.33;;;10.10;;
17604;SDS011;8921;50.964;6.800;2023-03-08T05:31:40;16.03;;;9.47;;
17604;SDS011;8921;50.964;6.800;2023-03-08T05:34:09;15.20;;;8.90;;
17604;SDS011;8921;50.964;6.800;2023-03-08T05:36:36;15.80;;;9.47;;
17604;SDS011;8921;50.964;6.800;2023-03-08T05:39:05;14.40;;;8.87;;
17604;SDS011;8921;50.964;6.800;2023-03-08T05:41:33;14.87;;;9.40;;
17604;SDS011;8921;50.964;6.800;2023-03-08T05:44:01;17.47;;;9.93;;
17604;SDS011;8921;50.964;6.800;2023-03-08T05:46:29;15.40;;;9.07;;
17604;SDS011;8921;50.964;6.800;2023-03-08T05:49:00;15.30;;;9.70;;
17604;SDS011;8921;50.964;6.800;2023-03-08T05:51:29;13.73;;;9.00;;
17604;SDS011;8921;50.964;6.800;2023-03-08T05:53:57;17.03;;;8.70;;
17604;SDS011;8921;50.964;6.800;2023-03-08T05:56:25;14.03;;;9.73;;
17604;SDS011;8921;50.964;6.800;2023-03-08T05:58:54;13.27;;;8.97;;
17604;SDS011;8921;50.964;6.800;2023-03-08T06:01:23;15.40;;;9.50;;
17604;SDS011;8921;50.964;6.800;2023-03-08T06:03:51;17.53;;;9.97;;
17604;SDS011;8921;50.964;6.800;2023-03-08T06:06:19;17.53;;;11.00;;
17604;SDS011;8921;50.964;6.800;2023-03-08T06:08:47;17.43;;;11.50;;
17604;SDS011;8921;50.964;6.800;2023-03-08T06:11:15;21.13;;;11.83;;
17604;SDS011;8921;50.964;6.800;2023-03-08T06:13:43;26.53;;;13.80;;
17604;SDS011;8921;50.964;6.800;2023-03-08T06:16:14;26.30;;;13.77;;
17604;SDS011;8921;50.964;6.800;2023-03-08T06:18:43;24.73;;;13.50;;
17604;SDS011;8921;50.964;6.800;2023-03-08T06:21:12;19.77;;;12.10;;
17604;SDS011;8921;50.964;6.800;2023-03-08T06:23:42;20.30;;;12.00;;
17604;SDS011;8921;50.964;6.800;2023-03-08T06:26:10;20.30;;;12.57;;
17604;SDS011;8921;50.964;6.800;2023-03-08T06:28:38;18.00;;;11.23;;
17604;SDS011;8921;50.964;6.800;2023-03-08T06:31:07;19.37;;;10.87;;
17604;SDS011;8921;50.964;6.800;2023-03-08T06:33:35;20.50;;;11.87;;
17604;SDS011;8921;50.964;6.800;2023-03-08T06:36:07;20.83;;;12.80;;
17604;SDS011;8921;50.964;6.800;2023-03-08T06:38:40;19.97;;;12.00;;
17604;SDS011;8921;50.964;6.800;2023-03-08T06:41:09;17.43;;;10.00;;
17604;SDS011;8921;50.964;6.800;2023-03-08T06:43:37;19.20;;;11.27;;
17604;SDS011;8921;50.964;6.800;2023-03-08T06:46:06;18.63;;;11.30;;
17604;SDS011;8921;50.964;6.800;2023-03-08T06:48:34;16.57;;;10.30;;
17604;SDS011;8921;50.964;6.800;2023-03-08T06:51:02;16.50;;;10.50;;
17604;SDS011;8921;50.964;6.800;2023-03-08T06:53:30;14.83;;;10.30;;
17604;SDS011;8921;50.964;6.800;2023-03-08T06:55:58;19.17;;;9.90;;
17604;SDS011;8921;50.964;6.800;2023-03-08T06:58:27;28.10;;;17.97;;
17604;SDS011;8921;50.964;6.800;2023-03-08T07:00:55;26.90;;;18.27;;
17604;SDS011;8921;50.964;6.800;2023-03-08T07:03:23;21.33;;;11.93;;
17604;SDS011;8921;50.964;6.800;2023-03-08T07:05:52;19.00;;;10.73;;
17604;SDS011;8921;50.964;6.800;2023-03-08T07:08:20;15.20;;;10.00;;
17604;SDS011;8921;50.964;6.800;2023-03-08T07:10:48;21.03;;;12.00;;
17604;SDS011;8921;50.964;6.800;2023-03-08T07:13:16;17.73;;;9.90;;
17604;SDS011;8921;50.964;6.800;2023-03-08T07:15:45;14.47;;;9.53;;
17604;SDS011;8921;50.964;6.800;2023-03-08T07:18:13;15.70;;;8.83;;
17604;SDS011;8921;50.964;6.800;2023-03-08T07:20:41;16.67;;;9.17;;
17604;SDS011;8921;50.964;6.800;2023-03-08T07:23:10;13.70;;;9.10;;
17604;SDS011;8921;50.964;6.800;2023-03-08T07:25:39;14.03;;;9.30;;
17604;SDS011;8921;50.964;6.800;2023-03-08T07:28:07;16.37;;;9.87;;
17604;SDS011;8921;50.964;6.800;2023-03-08T07:30:35;13.47;;;9.30;;
17604;SDS011;8921;50.964;6.800;2023-03-08T07:33:04;15.50;;;9.70;;
17604;SDS011;8921;50.964;6.800;2023-03-08T07:35:32;17.97;;;10.17;;
17604;SDS011;8921;50.964;6.800;2023-03-08T07:38:00;15.30;;;9.77;;
17604;SDS011;8921;50.964;6.800;2023-03-08T07:40:28;14.00;;;9.40;;
17604;SDS011;8921;50.964;6.800;2023-03-08T07:42:57;14.80;;;8.80;;
17604;SDS011;8921;50.964;6.800;2023-03-08T07:45:25;13.00;;;8.90;;
17604;SDS011;8921;50.964;6.800;2023-03-08T07:47:53;16.87;;;10.37;;
17604;SDS011;8921;50.964;6.800;2023-03-08T07:50:22;17.00;;;10.37;;
17604;SDS011;8921;50.964;6.800;2023-03-08T07:52:50;17.33;;;9.77;;
17604;SDS011;8921;50.964;6.800;2023-03-08T07:55:18;16.03;;;9.80;;
17604;SDS011;8921;50.964;6.800;2023-03-08T07:57:47;15.67;;;10.47;;
17604;SDS011;8921;50.964;6.800;2023-03-08T08:00:15;13.90;;;10.07;;
17604;SDS011;8921;50.964;6.800;2023-03-08T08:02:43;19.53;;;11.00;;
17604;SDS011;8921;50.964;6.800;2023-03-08T08:05:12;18.90;;;11.20;;
17604;SDS011;8921;50.964;6.800;2023-03-08T08:07:40;16.40;;;11.27;;
17604;SDS011;8921;50.964;6.800;2023-03-08T08:10:08;15.53;;;10.70;;
17604;SDS011;8921;50.964;6.800;2023-03-08T08:12:37;18.73;;;11.90;;
17604;SDS011;8921;50.964;6.800;2023-03-08T08:15:05;24.60;;;11.00;;
17604;SDS011;8921;50.964;6.800;2023-03-08T08:17:34;20.13;;;11.30;;
17604;SDS011;8921;50.964;6.800;2023-03-08T08:20:02;21.00;;;11.77;;
17604;SDS011;8921;50.964;6.800;2023-03-08T08:22:33;21.43;;;13.00;;
17604;SDS011;8921;50.964;6.800;2023-03-08T08:24:59;20.60;;;13.50;;
17604;SDS011;8921;50.964;6.800;2023-03-08T08:27:27;16.67;;;11.90;;
17604;SDS011;8921;50.964;6.800;2023-03-08T08:29:55;19.77;;;12.87;;
17604;SDS011;8921;50.964;6.800;2023-03-08T08:32:24;17.00;;;11.60;;
17604;SDS011;8921;50.964;6.800;2023-03-08T08:34:52;19.37;;;13.10;;
17604;SDS011;8921;50.964;6.800;2023-03-08T08:37:20;18.40;;;11.73;;
17604;SDS011;8921;50.964;6.800;2023-03-08T08:39:48;19.20;;;12.63;;
17604;SDS011;8921;50.964;6.800;2023-03-08T08:42:17;16.80;;;11.77;;
17604;SDS011;8921;50.964;6.800;2023-03-08T08:44:45;18.43;;;11.50;;
17604;SDS011;8921;50.964;6.800;2023-03-08T08:47:13;15.30;;;10.00;;
17604;SDS011;8921;50.964;6.800;2023-03-08T08:49:42;16.20;;;10.13;;
17604;SDS011;8921;50.964;6.800;2023-03-08T08:52:10;15.87;;;10.43;;
17604;SDS011;8921;50.964;6.800;2023-03-08T08:54:38;16.83;;;10.80;;
17604;SDS011;8921;50.964;6.800;2023-03-08T08:57:07;13.23;;;9.80;;
17604;SDS011;8921;50.964;6.800;2023-03-08T08:59:35;16.17;;;10.50;;
17604;SDS011;8921;50.964;6.800;2023-03-08T09:02:03;16.70;;;9.87;;
17604;SDS011;8921;50.964;6.800;2023-03-08T09:04:31;15.27;;;10.50;;
17604;SDS011;8921;50.964;6.800;2023-03-08T09:07:00;15.57;;;10.10;;
17604;SDS011;8921;50.964;6.800;2023-03-08T09:09:28;14.00;;;10.40;;
17604;SDS011;8921;50.964;6.800;2023-03-08T09:11:56;15.87;;;10.40;;
17604;SDS011;8921;50.964;6.800;2023-03-08T09:14:25;15.30;;;9.93;;
17604;SDS011;8921;50.964;6.800;2023-03-08T09:16:53;13.20;;;9.23;;
17604;SDS011;8921;50.964;6.800;2023-03-08T09:19:21;15.37;;;10.40;;
17604;SDS011;8921;50.964;6.800;2023-03-08T09:21:49;12.20;;;9.87;;
17604;SDS011;8921;50.964;6.800;2023-03-08T09:24:18;15.27;;;10.03;;
17604;SDS011;8921;50.964;6.800;2023-03-08T09:26:46;15.50;;;10.27;;
17604;SDS011;8921;50.964;6.800;2023-03-08T09:29:14;16.63;;;10.70;;
17604;SDS011;8921;50.964;6.800;2023-03-08T09:31:43;19.77;;;11.30;;
17604;SDS011;8921;50.964;6.800;2023-03-08T09:34:11;17.20;;;11.10;;
17604;SDS011;8921;50.964;6.800;2023-03-08T09:36:39;18.53;;;10.90;;
17604;SDS011;8921;50.964;6.800;2023-03-08T09:39:08;16.07;;;11.70;;
17604;SDS011;8921;50.964;6.800;2023-03-08T09:44:37;16.07;;;11.17;;
17604;SDS011;8921;50.964;6.800;2023-03-08T09:49:40;14.90;;;10.20;;
17604;SDS011;8921;50.964;6.800;2023-03-08T09:52:16;18.43;;;10.57;;
17604;SDS011;8921;50.964;6.800;2023-03-08T09:54:57;16.77;;;11.50;;
17604;SDS011;8921;50.964;6.800;2023-03-08T09:57:27;13.87;;;9.70;;
17604;SDS011;8921;50.964;6.800;2023-03-08T09:59:54;17.73;;;10.30;;
17604;SDS011;8921;50.964;6.800;2023-03-08T10:02:28;17.03;;;10.63;;
17604;SDS011;8921;50.964;6.800;2023-03-08T10:04:56;16.27;;;10.50;;
17604;SDS011;8921;50.964;6.800;2023-03-08T10:07:33;14.07;;;9.80;;
17604;SDS011;8921;50.964;6.800;2023-03-08T10:15:31;16.07;;;11.27;;
17604;SDS011;8921;50.964;6.800;2023-03-08T10:18:00;15.77;;;11.43;;
17604;SDS011;8921;50.964;6.800;2023-03-08T10:20:28;16.17;;;10.50;;
17604;SDS011;8921;50.964;6.800;2023-03-08T10:23:05;15.03;;;11.03;;
17604;SDS011;8921;50.964;6.800;2023-03-08T10:25:30;15.40;;;10.87;;
17604;SDS011;8921;50.964;6.800;2023-03-08T10:27:59;15.37;;;10.20;;
17604;SDS011;8921;50.964;6.800;2023-03-08T10:30:33;14.33;;;10.70;;
17604;SDS011;8921;50.964;6.800;2023-03-08T10:33:02;15.10;;;10.50;;
17604;SDS011;8921;50.964;6.800;2023-03-08T10:35:29;15.07;;;10.87;;
17604;SDS011;8921;50.964;6.800;2023-03-08T10:37:59;16.57;;;11.10;;
17604;SDS011;8921;50.964;6.800;2023-03-08T10:40:28;15.77;;;11.60;;
17604;SDS011;8921;50.964;6.800;2023-03-08T10:42:57;17.40;;;10.87;;
17604;SDS011;8921;50.964;6.800;2023-03-08T10:45:24;18.17;;;10.60;;
17604;SDS011;8921;50.964;6.800;2023-03-08T10:47:57;16.30;;;12.00;;
17604;SDS011;8921;50.964;6.800;2023-03-08T10:50:28;15.40;;;10.73;;
17604;SDS011;8921;50.964;6.800;2023-03-08T10:53:06;17.80;;;10.57;;
17604;SDS011;8921;50.964;6.800;2023-03-08T10:55:27;17.47;;;12.23;;
17604;SDS011;8921;50.964;6.800;2023-03-08T10:57:56;15.40;;;10.40;;
17604;SDS011;8921;50.964;6.800;2023-03-08T11:00:30;15.73;;;11.80;;
17604;SDS011;8921;50.964;6.800;2023-03-08T11:05:34;18.43;;;12.30;;
17604;SDS011;8921;50.964;6.800;2023-03-08T11:08:02;14.37;;;10.70;;
17604;SDS011;8921;50.964;6.800;2023-03-08T11:10:30;16.33;;;11.20;;
17604;SDS011;8921;50.964;6.800;2023-03-08T11:13:04;16.73;;;11.37;;
17604;SDS011;8921;50.964;6.800;2023-03-08T11:15:33;19.00;;;11.60;;
17604;SDS011;8921;50.964;6.800;2023-03-08T11:20:54;17.40;;;12.63;;
17604;SDS011;8921;50.964;6.800;2023-03-08T11:25:55;14.73;;;10.90;;
17604;SDS011;8921;50.964;6.800;2023-03-08T11:28:28;16.77;;;12.43;;
17604;SDS011;8921;50.964;6.800;2023-03-08T11:36:35;16.17;;;12.03;;
17604;SDS011;8921;50.964;6.800;2023-03-08T11:42:11;17.10;;;11.60;;
17604;SDS011;8921;50.964;6.800;2023-03-08T11:44:48;17.57;;;11.50;;
17604;SDS011;8921;50.964;6.800;2023-03-08T11:47:30;17.93;;;11.03;;
17604;SDS011;8921;50.964;6.800;2023-03-08T11:52:37;16.40;;;10.83;;
17604;SDS011;8921;50.964;6.800;2023-03-08T11:57:53;15.87;;;11.33;;
17604;SDS011;8921;50.964;6.800;2023-03-08T12:00:22;14.97;;;10.60;;
17604;SDS011;8921;50.964;6.800;2023-03-08T12:02:53;14.53;;;9.73;;
17604;SDS011;8921;50.964;6.800;2023-03-08T12:07:57;15.93;;;10.10;;
17604;SDS011;8921;50.964;6.800;2023-03-08T12:13:05;17.30;;;11.73;;
17604;SDS011;8921;50.964;6.800;2023-03-08T12:20:47;15.90;;;11.73;;
17604;SDS011;8921;50.964;6.800;2023-03-08T12:26:12;15.87;;;10.23;;
17604;SDS011;8921;50.964;6.800;2023-03-08T12:28:40;17.70;;;11.40;;
17604;SDS011;8921;50.964;6.800;2023-03-08T12:31:21;16.33;;;10.80;;
17604;SDS011;8921;50.964;6.800;2023-03-08T12:33:50;15.90;;;10.10;;
17604;SDS011;8921;50.964;6.800;2023-03-08T12:36:18;16.93;;;10.27;;
17604;SDS011;8921;50.964;6.800;2023-03-08T12:38:47;15.40;;;10.87;;
17604;SDS011;8921;50.964;6.800;2023-03-08T12:44:05;16.30;;;11.10;;
17604;SDS011;8921;50.964;6.800;2023-03-08T12:46:45;16.60;;;11.67;;
17604;SDS011;8921;50.964;6.800;2023-03-08T12:49:19;16.13;;;10.83;;
17604;SDS011;8921;50.964;6.800;2023-03-08T12:52:02;16.10;;;11.50;;
17604;SDS011;8921;50.964;6.800;2023-03-08T12:54:33;16.47;;;12.17;;
17604;SDS011;8921;50.964;6.800;2023-03-08T12:57:01;15.10;;;11.97;;
17604;SDS011;8921;50.964;6.800;2023-03-08T12:59:32;14.77;;;11.50;;
17604;SDS011;8921;50.964;6.800;2023-03-08T13:02:01;15.10;;;11.17;;
17604;SDS011;8921;50.964;6.800;2023-03-08T13:09:29;16.37;;;10.93;;
17604;SDS011;8921;50.964;6.800;2023-03-08T13:12:40;17.20;;;12.30;;
17604;SDS011;8921;50.964;6.800;2023-03-08T13:14:40;17.30;;;11.90;;
17604;SDS011;8921;50.964;6.800;2023-03-08T13:20:19;14.40;;;10.77;;
17604;SDS011;8921;50.964;6.800;2023-03-08T13:28:41;14.80;;;10.63;;
17604;SDS011;8921;50.964;6.800;2023-03-08T13:31:16;18.53;;;11.90;;
17604;SDS011;8921;50.964;6.800;2023-03-08T13:33:45;16.13;;;10.63;;
17604;SDS011;8921;50.964;6.800;2023-03-08T13:36:18;15.23;;;11.40;;
17604;SDS011;8921;50.964;6.800;2023-03-08T13:41:32;16.50;;;11.30;;
17604;SDS011;8921;50.964;6.800;2023-03-08T13:44:01;14.77;;;10.00;;
17604;SDS011;8921;50.964;6.800;2023-03-08T13:46:28;17.70;;;10.63;;
17604;SDS011;8921;50.964;6.800;2023-03-08T13:48:56;15.03;;;11.30;;
17604;SDS011;8921;50.964;6.800;2023-03-08T13:51:25;15.00;;;10.57;;
17604;SDS011;8921;50.964;6.800;2023-03-08T13:53:53;13.17;;;10.50;;
17604;SDS011;8921;50.964;6.800;2023-03-08T13:56:24;14.17;;;10.30;;
17604;SDS011;8921;50.964;6.800;2023-03-08T13:58:55;17.00;;;11.40;;
17604;SDS011;8921;50.964;6.800;2023-03-08T14:01:23;15.00;;;10.60;;
17604;SDS011;8921;50.964;6.800;2023-03-08T14:03:51;15.37;;;10.67;;
17604;SDS011;8921;50.964;6.800;2023-03-08T14:08:56;15.13;;;11.10;;
17604;SDS011;8921;50.964;6.800;2023-03-08T14:11:25;18.40;;;11.73;;
17604;SDS011;8921;50.964;6.800;2023-03-08T14:13:52;18.87;;;11.30;;
17604;SDS011;8921;50.964;6.800;2023-03-08T14:16:24;15.70;;;11.30;;
17604;SDS011;8921;50.964;6.800;2023-03-08T14:18:58;19.53;;;11.50;;
17604;SDS011;8921;50.964;6.800;2023-03-08T14:24:05;15.23;;;10.47;;
17604;SDS011;8921;50.964;6.800;2023-03-08T14:26:35;16.70;;;11.80;;
17604;SDS011;8921;50.964;6.800;2023-03-08T14:29:09;15.20;;;10.10;;
17604;SDS011;8921;50.964;6.800;2023-03-08T14:31:53;16.30;;;11.70;;
17604;SDS011;8921;50.964;6.800;2023-03-08T14:34:20;16.03;;;10.97;;
17604;SDS011;8921;50.964;6.800;2023-03-08T14:36:51;14.13;;;10.37;;
17604;SDS011;8921;50.964;6.800;2023-03-08T14:39:18;16.90;;;10.90;;
17604;SDS011;8921;50.964;6.800;2023-03-08T14:41:46;16.93;;;10.97;;
17604;SDS011;8921;50.964;6.800;2023-03-08T14:44:25;17.10;;;11.60;;
17604;SDS011;8921;50.964;6.800;2023-03-08T14:46:51;14.90;;;10.80;;
17604;SDS011;8921;50.964;6.800;2023-03-08T14:49:26;21.83;;;11.97;;
17604;SDS011;8921;50.964;6.800;2023-03-08T14:51:54;25.70;;;12.03;;
17604;SDS011;8921;50.964;6.800;2023-03-08T14:54:27;17.30;;;11.10;;
17604;SDS011;8921;50.964;6.800;2023-03-08T14:57:00;19.33;;;11.80;;
17604;SDS011;8921;50.964;6.800;2023-03-08T14:59:28;15.67;;;11.77;;
17604;SDS011;8921;50.964;6.800;2023-03-08T15:01:56;18.43;;;11.87;;
17604;SDS011;8921;50.964;6.800;2023-03-08T15:04:24;18.17;;;12.93;;
17604;SDS011;8921;50.964;6.800;2023-03-08T15:06:53;15.50;;;11.07;;
17604;SDS011;8921;50.964;6.800;2023-03-08T15:09:21;20.03;;;12.47;;
17604;SDS011;8921;50.964;6.800;2023-03-08T15:11:49;17.77;;;12.47;;
17604;SDS011;8921;50.964;6.800;2023-03-08T15:14:17;17.27;;;12.20;;
17604;SDS011;8921;50.964;6.800;2023-03-08T15:16:46;17.83;;;12.20;;
17604;SDS011;8921;50.964;6.800;2023-03-08T15:19:14;17.13;;;12.33;;
17604;SDS011;8921;50.964;6.800;2023-03-08T15:21:42;16.17;;;12.37;;
17604;SDS011;8921;50.964;6.800;2023-03-08T15:24:14;17.73;;;13.20;;
17604;SDS011;8921;50.964;6.800;2023-03-08T15:26:42;15.80;;;11.60;;
17604;SDS011;8921;50.964;6.800;2023-03-08T15:29:32;15.50;;;11.70;;
17604;SDS011;8921;50.964;6.800;2023-03-08T15:31:44;17.27;;;12.40;;
17604;SDS011;8921;50.964;6.800;2023-03-08T15:34:12;17.73;;;12.40;;
17604;SDS011;8921;50.964;6.800;2023-03-08T15:36:41;16.17;;;11.23;;
17604;SDS011;8921;50.964;6.800;2023-03-08T15:39:12;14.90;;;10.97;;
17604;SDS011;8921;50.964;6.800;2023-03-08T15:41:40;15.43;;;11.93;;
17604;SDS011;8921;50.964;6.800;2023-03-08T15:44:08;15.87;;;12.57;;
17604;SDS011;8921;50.964;6.800;2023-03-08T15:46:37;24.73;;;13.47;;
17604;SDS011;8921;50.964;6.800;2023-03-08T15:49:05;18.60;;;12.40;;
17604;SDS011;8921;50.964;6.800;2023-03-08T15:51:34;19.80;;;13.50;;
17604;SDS011;8921;50.964;6.800;2023-03-08T15:54:03;16.10;;;11.30;;
17604;SDS011;8921;50.964;6.800;2023-03-08T15:56:30;17.00;;;11.70;;
17604;SDS011;8921;50.964;6.800;2023-03-08T15:58:58;18.93;;;13.70;;
17604;SDS011;8921;50.964;6.800;2023-03-08T16:01:26;19.90;;;12.50;;
17604;SDS011;8921;50.964;6.800;2023-03-08T16:03:55;16.10;;;11.77;;
17604;SDS011;8921;50.964;6.800;2023-03-08T16:06:23;17.30;;;12.20;;
17604;SDS011;8921;50.964;6.800;2023-03-08T16:08:51;17.17;;;11.20;;
17604;SDS011;8921;50.964;6.800;2023-03-08T16:11:20;16.30;;;11.80;;
17604;SDS011;8921;50.964;6.800;2023-03-08T16:13:49;18.23;;;12.03;;
17604;SDS011;8921;50.964;6.800;2023-03-08T16:16:16;18.23;;;12.23;;